createdAt,value
2018-09-06T00:00:50.523Z,71.24
2018-09-06T00:03:21.170Z,71.25
2018-09-06T00:05:51.777Z,72.07
2018-09-06T00:08:22.550Z,72.41
2018-09-06T00:10:54.097Z,72.58
2018-09-06T00:13:24.708Z,72.81
2018-09-06T00:15:55.297Z,73.75
2018-09-06T00:18:26.006Z,74.63
2018-09-06T00:20:56.795Z,75.71
2018-09-06T00:23:27.084Z,76.00
2018-09-06T00:25:57.485Z,75.51
2018-09-06T00:28:27.896Z,75.30
2018-09-06T00:30:58.337Z,75.79
2018-09-06T00:33:28.877Z,75.45
2018-09-06T00:35:59.738Z,75.65
2018-09-06T00:38:30.351Z,74.96
2018-09-06T00:41:00.637Z,75.29
2018-09-06T00:43:31.267Z,75.67
2018-09-06T00:46:03.307Z,75.66
2018-09-06T00:48:33.699Z,75.57
2018-09-06T00:51:04.295Z,75.53
2018-09-06T00:53:35.170Z,75.76
2018-09-06T00:56:06.195Z,75.40
2018-09-06T00:58:36.574Z,75.00
2018-09-06T01:01:07.042Z,75.07
2018-09-06T01:03:41.468Z,74.96
2018-09-06T01:06:12.030Z,75.26
2018-09-06T01:08:42.619Z,74.36
2018-09-06T01:11:13.290Z,74.53
2018-09-06T01:13:44.209Z,73.34
2018-09-06T01:16:14.837Z,73.34
2018-09-06T01:18:45.415Z,73.02
2018-09-06T01:21:15.968Z,73.29
2018-09-06T01:23:46.265Z,73.31
2018-09-06T01:26:16.896Z,74.12
2018-09-06T01:28:47.464Z,74.35
2018-09-06T01:31:19.027Z,74.51
2018-09-06T01:33:49.569Z,74.55
2018-09-06T01:36:25.223Z,74.29
2018-09-06T01:38:55.583Z,74.62
2018-09-06T01:41:26.119Z,74.48
2018-09-06T01:43:56.674Z,74.43
2018-09-06T01:46:27.614Z,74.69
2018-09-06T01:48:58.696Z,75.14
2018-09-06T01:51:29.304Z,74.78
2018-09-06T01:54:00.041Z,74.81
2018-09-06T01:56:31.267Z,75.80
2018-09-06T01:59:01.857Z,75.96
2018-09-06T02:01:33.484Z,75.75
2018-09-06T02:04:04.404Z,75.64
2018-09-06T02:06:34.971Z,75.24
2018-09-06T02:09:08.529Z,75.74
2018-09-06T02:11:40.867Z,75.93
2018-09-06T02:14:11.481Z,75.25
2018-09-06T02:16:42.970Z,75.38
2018-09-06T02:19:13.662Z,75.31
2018-09-06T02:21:45.644Z,75.48
2018-09-06T02:24:16.267Z,75.11
2018-09-06T02:26:47.164Z,74.62
2018-09-06T02:29:17.763Z,74.70
2018-09-06T02:31:48.399Z,74.55
2018-09-06T02:34:19.351Z,74.30
2018-09-06T02:36:49.914Z,73.94
2018-09-06T02:39:20.558Z,73.60
2018-09-06T02:41:51.128Z,73.81
2018-09-06T02:44:21.888Z,73.27
2018-09-06T02:46:52.478Z,73.47
2018-09-06T02:49:28.344Z,73.69
2018-09-06T02:51:58.609Z,73.53
2018-09-06T02:54:29.186Z,73.88
2018-09-06T02:56:59.475Z,73.89
2018-09-06T02:59:30.832Z,74.14
2018-09-06T03:02:01.505Z,73.74
2018-09-06T03:04:32.452Z,73.36
2018-09-06T03:07:03.188Z,74.01
2018-09-06T03:09:33.772Z,73.29
2018-09-06T03:12:06.599Z,73.78
2018-09-06T03:14:36.926Z,73.84
2018-09-06T03:17:07.531Z,73.95
2018-09-06T03:19:38.399Z,73.86
2018-09-06T03:22:09.289Z,73.87
2018-09-06T03:24:39.823Z,72.91
2018-09-06T03:27:10.736Z,72.46
2018-09-06T03:29:41.000Z,72.31
2018-09-06T03:32:12.397Z,71.47
2018-09-06T03:34:43.460Z,70.17
2018-09-06T03:37:13.980Z,69.23
2018-09-06T03:39:48.195Z,68.55
2018-09-06T03:42:18.948Z,66.90
2018-09-06T03:44:49.333Z,67.84
2018-09-06T03:47:19.903Z,70.87
2018-09-06T03:49:50.201Z,71.87
2018-09-06T03:52:20.741Z,72.80
2018-09-06T03:54:51.348Z,72.37
2018-09-06T03:57:21.893Z,73.07
2018-09-06T03:59:52.540Z,73.36
2018-09-06T04:02:23.269Z,71.35
2018-09-06T04:04:53.580Z,71.68
2018-09-06T04:07:30.407Z,72.73
2018-09-06T04:10:01.579Z,74.22
2018-09-06T04:12:41.680Z,75.49
2018-09-06T04:15:15.510Z,76.15
2018-09-06T04:17:46.249Z,75.21
2018-09-06T04:20:17.160Z,75.76
2018-09-06T04:22:51.272Z,74.44
2018-09-06T04:25:21.815Z,71.59
2018-09-06T04:27:52.373Z,70.73
2018-09-06T04:30:22.960Z,72.96
2018-09-06T04:32:53.624Z,75.13
2018-09-06T04:35:24.050Z,76.73
2018-09-06T04:37:55.687Z,77.00
2018-09-06T04:40:26.336Z,78.28
2018-09-06T04:42:56.960Z,77.91
2018-09-06T04:45:27.262Z,78.50
2018-09-06T04:47:57.880Z,79.04
2018-09-06T04:50:28.554Z,79.47
2018-09-06T04:52:58.805Z,79.80
2018-09-06T04:55:29.287Z,80.14
2018-09-06T04:58:00.140Z,79.68
2018-09-06T05:00:31.737Z,80.13
2018-09-06T05:03:02.457Z,80.01
2018-09-06T05:05:32.833Z,79.91
2018-09-06T05:08:03.474Z,79.82
2018-09-06T05:10:34.156Z,80.06
2018-09-06T05:13:04.730Z,79.53
2018-09-06T05:15:35.476Z,80.13
2018-09-06T05:18:07.176Z,80.47
2018-09-06T05:20:37.884Z,80.49
2018-09-06T05:23:08.204Z,80.12
2018-09-06T05:25:38.768Z,80.46
2018-09-06T05:28:09.400Z,80.01
2018-09-06T05:30:40.297Z,79.62
2018-09-06T05:33:10.726Z,78.92
2018-09-06T05:35:41.263Z,78.08
2018-09-06T05:38:11.555Z,77.93
2018-09-06T05:40:42.190Z,76.98
2018-09-06T05:43:12.707Z,76.57
2018-09-06T05:45:43.975Z,75.82
2018-09-06T05:48:14.476Z,74.81
2018-09-06T05:50:45.160Z,74.23
2018-09-06T05:53:15.692Z,73.33
2018-09-06T05:55:46.636Z,72.14
2018-09-06T05:58:17.410Z,72.77
2018-09-06T06:00:49.365Z,72.33
2018-09-06T06:03:20.102Z,71.45
2018-09-06T06:05:50.454Z,70.89
2018-09-06T06:08:32.024Z,70.83
2018-09-06T06:11:02.461Z,72.02
2018-09-06T06:13:33.054Z,70.89
2018-09-06T06:16:03.745Z,71.59
2018-09-06T06:18:34.248Z,71.42
2018-09-06T06:21:05.129Z,70.24
2018-09-06T06:23:35.747Z,69.82
2018-09-06T06:26:06.990Z,68.87
2018-09-06T06:28:37.404Z,69.20
2018-09-06T06:31:07.965Z,69.10
2018-09-06T06:33:38.409Z,68.42
2018-09-06T06:36:08.703Z,69.33
2018-09-06T06:38:39.229Z,69.59
2018-09-06T06:41:10.241Z,69.10
2018-09-06T06:43:41.076Z,68.58
2018-09-06T06:46:11.591Z,67.46
2018-09-06T06:48:42.126Z,65.93
2018-09-06T06:51:12.768Z,64.43
2018-09-06T06:53:44.348Z,63.89
2018-09-06T06:56:14.882Z,63.47
2018-09-06T06:58:45.392Z,62.94
2018-09-06T07:01:15.975Z,64.18
2018-09-06T07:03:46.505Z,63.17
2018-09-06T07:06:16.980Z,62.59
2018-09-06T07:08:47.195Z,60.70
2018-09-06T07:11:17.736Z,59.74
2018-09-06T07:13:48.249Z,59.94
2018-09-06T07:16:18.921Z,58.67
2018-09-06T07:18:49.256Z,60.04
2018-09-06T07:21:19.892Z,58.91
2018-09-06T07:23:50.415Z,56.68
2018-09-06T07:26:20.941Z,55.99
2018-09-06T07:28:51.203Z,54.70
2018-09-06T07:31:22.004Z,56.87
2018-09-06T07:33:52.976Z,55.36
2018-09-06T07:36:23.909Z,52.32
2018-09-06T07:38:54.204Z,49.78
2018-09-06T07:41:24.494Z,50.13
2018-09-06T07:43:59.050Z,50.76
2018-09-06T07:46:29.340Z,50.90
2018-09-06T07:48:59.587Z,49.87
2018-09-06T07:51:31.832Z,48.37
2018-09-06T07:54:02.531Z,47.54
2018-09-06T07:56:33.208Z,47.10
2018-09-06T07:59:03.764Z,49.17
2018-09-06T08:01:34.432Z,49.38
2018-09-06T08:04:05.014Z,48.12
2018-09-06T08:06:35.352Z,47.75
2018-09-06T08:09:09.195Z,47.89
2018-09-06T08:11:40.089Z,49.32
2018-09-06T08:14:10.639Z,49.40
2018-09-06T08:16:41.244Z,48.88
2018-09-06T08:19:12.527Z,50.03
2018-09-06T08:21:43.417Z,47.06
2018-09-06T08:24:14.242Z,45.65
2018-09-06T08:26:46.141Z,45.20
2018-09-06T08:29:16.865Z,44.14
2018-09-06T08:31:47.086Z,43.57
2018-09-06T08:34:17.694Z,42.66
2018-09-06T08:36:47.988Z,42.76
2018-09-06T08:39:18.372Z,46.85
2018-09-06T08:41:48.880Z,49.66
2018-09-06T08:44:19.556Z,49.44
2018-09-06T08:46:50.158Z,47.95
2018-09-06T08:49:20.693Z,47.61
2018-09-06T08:51:50.985Z,48.48
2018-09-06T08:54:21.389Z,49.05
2018-09-06T08:56:51.953Z,49.16
2018-09-06T08:59:22.641Z,47.92
2018-09-06T09:01:53.177Z,45.94
2018-09-06T09:04:24.146Z,45.50
2018-09-06T09:06:55.269Z,44.35
2018-09-06T09:09:25.551Z,46.93
2018-09-06T09:11:57.417Z,46.35
2018-09-06T09:14:27.943Z,44.94
2018-09-06T09:16:58.728Z,44.88
2018-09-06T09:19:30.982Z,44.26
2018-09-06T09:22:04.496Z,44.51
2018-09-06T09:24:35.232Z,45.91
2018-09-06T09:27:06.528Z,45.71
2018-09-06T09:29:36.872Z,45.41
2018-09-06T09:32:07.820Z,44.87
2018-09-06T09:34:38.084Z,42.98
2018-09-06T09:37:09.644Z,33.39
2018-09-06T09:39:40.372Z,23.17
2018-09-06T09:42:10.967Z,14.79
2018-09-06T09:44:41.599Z,10.99
2018-09-06T09:49:41.837Z,8.37
2018-09-06T09:52:12.324Z,11.73
2018-09-06T09:54:42.912Z,17.85
2018-09-06T09:57:13.236Z,16.82
2018-09-06T09:59:43.835Z,15.01
2018-09-06T10:02:19.396Z,11.46
2018-09-06T10:04:56.467Z,11.77
2018-09-06T10:07:32.312Z,11.11
2018-09-06T10:10:02.831Z,7.23
2018-09-06T10:12:38.615Z,7.52
2018-09-06T10:15:14.833Z,7.32
2018-09-06T10:17:45.792Z,7.76
2018-09-06T10:20:16.303Z,11.02
2018-09-06T10:22:48.192Z,10.69
2018-09-06T10:25:18.684Z,8.76
2018-09-06T10:27:49.322Z,11.55
2018-09-06T10:30:21.323Z,9.35
2018-09-06T10:32:52.332Z,9.05
2018-09-06T10:35:22.896Z,11.05
2018-09-06T10:37:53.951Z,11.78
2018-09-06T10:40:25.115Z,13.80
2018-09-06T10:42:56.144Z,18.65
2018-09-06T10:45:26.923Z,20.05
2018-09-06T10:47:57.869Z,19.09
2018-09-06T10:50:29.343Z,17.71
2018-09-06T10:52:59.848Z,19.99
2018-09-06T10:55:31.219Z,22.83
2018-09-06T10:58:02.156Z,27.48
2018-09-06T11:00:32.948Z,28.85
2018-09-06T11:03:03.696Z,30.98
2018-09-06T11:05:33.948Z,31.53
2018-09-06T11:08:04.365Z,32.52
2018-09-06T11:10:34.744Z,32.92
2018-09-06T11:13:05.015Z,35.33
2018-09-06T11:15:35.540Z,35.34
2018-09-06T11:18:05.833Z,34.65
2018-09-06T11:20:36.580Z,33.21
2018-09-06T11:23:06.883Z,32.25
2018-09-06T11:25:37.561Z,33.86
2018-09-06T11:28:08.804Z,34.04
2018-09-06T11:30:39.497Z,31.42
2018-09-06T11:33:09.973Z,30.36
2018-09-06T11:35:40.515Z,31.35
2018-09-06T11:38:10.818Z,34.14
2018-09-06T11:40:41.463Z,34.78
2018-09-06T11:43:11.759Z,37.24
2018-09-06T11:45:42.319Z,38.04
2018-09-06T11:48:12.728Z,38.31
2018-09-06T11:50:43.043Z,38.59
2018-09-06T11:53:13.372Z,38.65
2018-09-06T11:55:44.352Z,35.06
2018-09-06T11:58:14.597Z,32.72
2018-09-06T12:00:45.699Z,31.04
2018-09-06T12:03:16.286Z,33.89
2018-09-06T12:05:46.538Z,35.81
2018-09-06T12:08:31.640Z,35.79
2018-09-06T12:11:02.195Z,34.18
2018-09-06T12:13:32.725Z,34.41
2018-09-06T12:16:03.308Z,34.61
2018-09-06T12:18:33.551Z,34.07
2018-09-06T12:21:03.847Z,33.85
2018-09-06T12:23:34.376Z,34.70
2018-09-06T12:26:04.916Z,36.01
2018-09-06T12:28:35.425Z,35.97
2018-09-06T12:31:06.632Z,36.62
2018-09-06T12:33:37.210Z,36.05
2018-09-06T12:36:08.271Z,35.50
2018-09-06T12:38:39.397Z,34.71
2018-09-06T12:41:10.624Z,34.18
2018-09-06T12:43:41.189Z,32.07
2018-09-06T12:46:12.231Z,31.23
2018-09-06T12:48:43.256Z,30.46
2018-09-06T12:51:13.813Z,30.70
2018-09-06T12:53:44.867Z,30.00
2018-09-06T12:56:15.404Z,30.96
2018-09-06T12:58:46.936Z,32.30
2018-09-06T13:01:17.205Z,32.94
2018-09-06T13:03:47.479Z,36.93
2018-09-06T13:06:18.087Z,37.46
2018-09-06T13:08:48.819Z,38.14
2018-09-06T13:11:19.489Z,37.77
2018-09-06T13:13:50.071Z,37.69
2018-09-06T13:16:20.960Z,35.68
2018-09-06T13:18:51.276Z,33.92
2018-09-06T13:21:21.939Z,31.28
2018-09-06T13:23:52.487Z,30.06
2018-09-06T13:26:23.089Z,32.18
2018-09-06T13:28:53.875Z,32.96
2018-09-06T13:31:24.509Z,34.78
2018-09-06T13:33:55.806Z,35.77
2018-09-06T13:36:26.326Z,34.48
2018-09-06T13:38:56.994Z,34.70
2018-09-06T13:41:27.528Z,35.07
2018-09-06T13:43:57.784Z,33.68
2018-09-06T13:46:28.305Z,32.10
2018-09-06T13:48:59.598Z,34.67
2018-09-06T13:51:29.887Z,36.31
2018-09-06T13:54:00.392Z,36.08
2018-09-06T13:56:32.486Z,35.46
2018-09-06T13:59:02.878Z,34.59
2018-09-06T14:01:33.501Z,35.54
2018-09-06T14:04:03.837Z,36.52
2018-09-06T14:06:34.122Z,36.48
2018-09-06T14:09:05.144Z,35.50
2018-09-06T14:11:36.842Z,33.08
2018-09-06T14:14:07.250Z,32.79
2018-09-06T14:16:37.659Z,34.76
2018-09-06T14:19:08.414Z,36.41
2018-09-06T14:21:40.138Z,35.86
2018-09-06T14:24:10.570Z,36.27
2018-09-06T14:26:41.252Z,36.72
2018-09-06T14:29:11.895Z,37.01
2018-09-06T14:31:42.432Z,36.69
2018-09-06T14:34:13.035Z,36.24
2018-09-06T14:36:43.342Z,36.22
2018-09-06T14:39:14.233Z,35.39
2018-09-06T14:41:44.801Z,35.25
2018-09-06T14:44:15.063Z,33.88
2018-09-06T14:46:45.359Z,34.92
2018-09-06T14:49:15.924Z,35.75
2018-09-06T14:51:46.484Z,36.29
2018-09-06T14:54:16.898Z,34.63
2018-09-06T14:56:47.314Z,35.00
2018-09-06T14:59:17.968Z,36.71
2018-09-06T15:01:48.565Z,36.09
2018-09-06T15:04:19.123Z,36.89
2018-09-06T15:06:49.690Z,36.15
2018-09-06T15:09:20.263Z,36.33
2018-09-06T15:11:51.286Z,35.84
2018-09-06T15:14:21.616Z,35.33
2018-09-06T15:16:52.139Z,34.87
2018-09-06T15:19:22.486Z,35.29
2018-09-06T15:21:53.159Z,36.36
2018-09-06T15:24:23.805Z,36.71
2018-09-06T15:26:54.363Z,36.89
2018-09-06T15:29:25.629Z,38.45
2018-09-06T15:31:56.238Z,38.93
2018-09-06T15:34:26.830Z,37.51
2018-09-06T15:36:57.625Z,37.54
2018-09-06T15:39:28.171Z,37.14
2018-09-06T15:42:00.232Z,37.13
2018-09-06T15:44:30.541Z,36.55
2018-09-06T15:47:01.107Z,37.67
2018-09-06T15:49:31.463Z,38.29
2018-09-06T15:52:03.038Z,38.67
2018-09-06T15:54:33.277Z,37.54
2018-09-06T15:57:03.844Z,38.46
2018-09-06T15:59:34.391Z,38.69
2018-09-06T16:02:05.318Z,37.67
2018-09-06T16:04:35.612Z,37.24
2018-09-06T16:07:05.861Z,37.05
2018-09-06T16:09:36.193Z,37.93
2018-09-06T16:12:06.924Z,38.00
2018-09-06T16:14:37.764Z,36.49
2018-09-06T16:17:08.689Z,37.67
2018-09-06T16:19:39.163Z,36.46
2018-09-06T16:22:09.835Z,35.52
2018-09-06T16:24:40.222Z,35.65
2018-09-06T16:27:10.608Z,36.95
2018-09-06T16:29:41.482Z,36.91
2018-09-06T16:32:12.096Z,36.68
2018-09-06T16:34:42.720Z,37.10
2018-09-06T16:37:13.075Z,37.73
2018-09-06T16:39:44.314Z,37.63
2018-09-06T16:42:14.860Z,36.72
2018-09-06T16:44:46.388Z,36.49
2018-09-06T16:47:16.913Z,34.55
2018-09-06T16:49:47.420Z,36.53
2018-09-06T16:52:17.994Z,36.83
2018-09-06T16:54:48.310Z,35.89
2018-09-06T16:57:18.855Z,35.22
2018-09-06T16:59:49.471Z,34.42
2018-09-06T17:02:20.073Z,33.85
2018-09-06T17:04:50.649Z,33.10
2018-09-06T17:07:20.956Z,33.17
2018-09-06T17:09:51.540Z,32.59
2018-09-06T17:12:21.753Z,33.06
2018-09-06T17:14:52.319Z,33.50
2018-09-06T17:17:22.867Z,33.94
2018-09-06T17:19:53.474Z,33.72
2018-09-06T17:22:24.170Z,33.71
2018-09-06T17:24:54.712Z,34.58
2018-09-06T17:27:25.377Z,34.42
2018-09-06T17:29:56.935Z,35.46
2018-09-06T17:32:27.556Z,35.92
2018-09-06T17:34:58.244Z,36.18
2018-09-06T17:37:28.783Z,35.70
2018-09-06T17:39:59.213Z,36.28
2018-09-06T17:42:31.052Z,36.80
2018-09-06T17:45:01.807Z,37.61
2018-09-06T17:47:45.769Z,39.36
2018-09-06T17:50:16.556Z,39.17
2018-09-06T17:52:47.087Z,41.82
2018-09-06T17:57:47.184Z,43.30
2018-09-06T18:00:17.818Z,42.74
2018-09-06T18:02:48.366Z,41.06
2018-09-06T18:05:18.972Z,40.42
2018-09-06T18:07:49.200Z,41.85
2018-09-06T18:10:19.831Z,43.60
2018-09-06T18:12:50.451Z,43.96
2018-09-06T18:15:20.967Z,47.37
2018-09-06T18:17:52.127Z,49.32
2018-09-06T18:20:23.172Z,50.80
2018-09-06T18:22:53.464Z,50.53
2018-09-06T18:25:24.351Z,49.94
2018-09-06T18:27:54.623Z,50.06
2018-09-06T18:30:25.320Z,52.01
2018-09-06T18:32:55.952Z,54.67
2018-09-06T18:35:26.300Z,54.57
2018-09-06T18:37:56.776Z,54.92
2018-09-06T18:40:27.412Z,51.82
2018-09-06T18:42:57.988Z,49.80
2018-09-06T18:45:29.298Z,49.12
2018-09-06T18:48:00.152Z,49.09
2018-09-06T18:50:30.552Z,49.34
2018-09-06T18:53:01.129Z,48.98
2018-09-06T18:55:32.563Z,50.70
2018-09-06T18:58:03.571Z,51.85
2018-09-06T19:00:34.171Z,53.28
2018-09-06T19:03:04.761Z,54.88
2018-09-06T19:05:35.267Z,56.03
2018-09-06T19:08:05.878Z,56.21
2018-09-06T19:10:36.481Z,55.86
2018-09-06T19:13:07.391Z,57.43
2018-09-06T19:15:38.868Z,56.72
2018-09-06T19:18:09.180Z,56.92
2018-09-06T19:20:39.812Z,55.66
2018-09-06T19:23:10.343Z,54.56
2018-09-06T19:25:40.670Z,54.83
2018-09-06T19:28:11.220Z,55.67
2018-09-06T19:30:42.011Z,56.18
2018-09-06T19:33:13.321Z,56.90
2018-09-06T19:35:44.571Z,55.73
2018-09-06T19:38:15.148Z,54.32
2018-09-06T19:40:45.667Z,54.56
2018-09-06T19:43:16.225Z,56.70
2018-09-06T19:45:46.968Z,58.72
2018-09-06T19:48:17.537Z,59.55
2018-09-06T19:50:47.736Z,60.25
2018-09-06T19:53:18.337Z,60.86
2018-09-06T19:55:49.115Z,60.65
2018-09-06T19:58:19.627Z,61.35
2018-09-06T20:00:49.877Z,61.02
2018-09-06T20:03:21.047Z,60.75
2018-09-06T20:05:51.583Z,61.44
2018-09-06T20:08:22.230Z,62.28
2018-09-06T20:10:52.797Z,61.67
2018-09-06T20:13:23.460Z,62.25
2018-09-06T20:15:54.107Z,62.76
2018-09-06T20:18:24.842Z,62.33
2018-09-06T20:20:55.697Z,62.06
2018-09-06T20:23:26.315Z,62.15
2018-09-06T20:25:57.509Z,61.72
2018-09-06T20:28:28.050Z,62.37
2018-09-06T20:30:58.729Z,61.48
2018-09-06T20:33:29.499Z,61.96
2018-09-06T20:35:59.922Z,62.35
2018-09-06T20:38:30.536Z,63.37
2018-09-06T20:41:01.073Z,61.96
2018-09-06T20:43:31.362Z,60.55
2018-09-06T20:46:02.227Z,61.15
2018-09-06T20:48:32.587Z,61.43
2018-09-06T20:51:03.805Z,62.07
2018-09-06T20:53:34.681Z,62.99
2018-09-06T20:56:05.384Z,62.79
2018-09-06T20:58:36.056Z,62.32
2018-09-06T21:01:06.892Z,63.55
2018-09-06T21:03:37.717Z,63.91
2018-09-06T21:06:09.124Z,64.04
2018-09-06T21:08:39.860Z,63.76
2018-09-06T21:11:10.718Z,64.26
2018-09-06T21:13:41.972Z,65.30
2018-09-06T21:16:13.666Z,65.58
2018-09-06T21:18:44.056Z,64.39
2018-09-06T21:21:14.791Z,63.71
2018-09-06T21:23:45.330Z,65.15
2018-09-06T21:26:16.208Z,63.92
2018-09-06T21:28:46.684Z,64.17
2018-09-06T21:31:17.256Z,63.04
2018-09-06T21:33:47.826Z,62.20
2018-09-06T21:36:18.122Z,61.99
2018-09-06T21:38:49.147Z,62.24
2018-09-06T21:41:19.689Z,63.34
2018-09-06T21:43:50.163Z,64.57
2018-09-06T21:46:20.786Z,64.61
2018-09-06T21:48:51.340Z,64.15
2018-09-06T21:51:22.139Z,63.52
2018-09-06T21:53:52.548Z,63.80
2018-09-06T21:56:22.777Z,63.77
2018-09-06T21:58:53.630Z,64.29
2018-09-06T22:01:24.545Z,64.87
2018-09-06T22:04:08.267Z,65.20
2018-09-06T22:06:39.215Z,66.19
2018-09-06T22:09:11.721Z,66.91
2018-09-06T22:11:41.967Z,68.72
2018-09-06T22:14:12.851Z,68.58
2018-09-06T22:16:44.075Z,68.83
2018-09-06T22:19:15.684Z,69.48
2018-09-06T22:21:46.542Z,71.42
2018-09-06T22:24:17.082Z,70.98
2018-09-06T22:26:47.672Z,69.95
2018-09-06T22:29:18.487Z,69.39
2018-09-06T22:31:49.311Z,70.52
2018-09-06T22:34:20.127Z,71.08
2018-09-06T22:36:50.669Z,72.18
2018-09-06T22:39:23.318Z,72.95
2018-09-06T22:41:54.001Z,73.99
2018-09-06T22:44:24.548Z,74.06
2018-09-06T22:46:55.017Z,74.79
2018-09-06T22:49:25.914Z,75.05
2018-09-06T22:51:57.252Z,74.67
2018-09-06T22:54:28.353Z,74.71
2018-09-06T22:56:59.009Z,73.36
2018-09-06T22:59:30.337Z,72.10
2018-09-06T23:02:00.794Z,72.48
2018-09-06T23:04:31.623Z,73.06
2018-09-06T23:07:02.291Z,73.19
2018-09-06T23:09:33.666Z,72.57
2018-09-06T23:12:04.617Z,72.47
2018-09-06T23:14:35.540Z,72.20
2018-09-06T23:17:06.351Z,71.33
2018-09-06T23:19:36.895Z,71.90
2018-09-06T23:22:07.437Z,72.22
2018-09-06T23:24:41.345Z,71.55
2018-09-06T23:27:11.903Z,68.84
2018-09-06T23:29:42.435Z,66.90
2018-09-06T23:32:13.048Z,67.30
2018-09-06T23:34:43.608Z,68.07
2018-09-06T23:37:14.139Z,69.13
2018-09-06T23:39:44.988Z,70.31
2018-09-06T23:42:15.536Z,70.65
2018-09-06T23:44:46.089Z,71.15
2018-09-06T23:47:16.620Z,71.54
2018-09-06T23:49:47.208Z,71.36
2018-09-06T23:52:18.232Z,69.49
2018-09-06T23:54:49.025Z,69.00
2018-09-06T23:57:19.727Z,70.62
2018-09-06T23:59:50.460Z,70.84
